createdAt,value
2023-04-19T00:01:04.342Z,4.25
2023-04-19T00:03:31.728Z,3.60
2023-04-19T00:05:59.339Z,3.60
2023-04-19T00:08:26.415Z,4.70
2023-04-19T00:10:53.020Z,4.15
2023-04-19T00:13:19.613Z,4.15
2023-04-19T00:15:46.311Z,4.68
2023-04-19T00:18:12.875Z,3.70
2023-04-19T00:20:39.656Z,3.60
2023-04-19T00:23:06.465Z,4.18
2023-04-19T12:51:43.189Z,1.33
2023-04-19T12:54:10.196Z,1.48
2023-04-19T12:56:36.892Z,1.40
2023-04-19T12:59:03.574Z,1.30
2023-04-19T13:01:30.330Z,1.40
2023-04-19T13:03:59.260Z,1.77
2023-04-19T13:06:26.592Z,1.45
2023-04-19T13:08:54.961Z,1.50
2023-04-19T13:11:23.477Z,1.38
2023-04-19T13:16:18.369Z,1.45
2023-04-19T13:18:45.082Z,1.40
2023-04-19T13:21:11.868Z,1.50
2023-04-19T13:23:38.590Z,1.30
2023-04-19T13:26:05.394Z,1.30
2023-04-19T13:28:32.043Z,1.60
2023-04-19T13:30:58.791Z,1.42
2023-04-19T13:33:26.984Z,1.30
2023-04-19T13:35:53.638Z,1.80
2023-04-19T13:38:20.255Z,1.40
2023-04-19T13:40:46.867Z,1.70
2023-04-19T13:43:13.412Z,1.75
2023-04-19T13:45:40.000Z,1.50
2023-04-19T13:48:06.659Z,1.70
2023-04-19T13:50:33.289Z,1.65
2023-04-19T13:52:59.977Z,1.67
2023-04-19T13:55:27.183Z,1.67
2023-04-19T13:57:53.766Z,1.70
2023-04-19T14:00:21.270Z,1.80
2023-04-19T14:02:50.032Z,1.63
2023-04-19T14:05:18.264Z,1.52
2023-04-19T14:07:44.828Z,1.73
2023-04-19T14:10:11.538Z,1.60
2023-04-19T14:12:38.104Z,1.88
2023-04-19T14:15:04.973Z,1.85
2023-04-19T14:17:31.618Z,2.00
2023-04-19T14:19:58.236Z,1.52
2023-04-19T14:22:24.862Z,1.90
2023-04-19T14:24:51.719Z,1.77
2023-04-19T14:27:19.334Z,1.90
2023-04-19T14:29:46.091Z,1.83
2023-04-19T14:32:25.107Z,1.98
2023-04-19T14:34:53.443Z,1.83
2023-04-19T14:37:21.867Z,2.10
2023-04-19T14:42:14.901Z,2.03
2023-04-19T14:44:41.629Z,2.03
2023-04-19T14:47:08.327Z,1.90
2023-04-19T14:49:34.894Z,2.28
2023-04-19T14:52:01.571Z,2.00
2023-04-19T14:54:28.164Z,1.73
2023-04-19T14:56:54.744Z,2.60
2023-04-19T14:59:21.640Z,2.10
2023-04-19T15:01:48.360Z,2.40
2023-04-19T15:04:15.212Z,2.45
2023-04-19T15:06:42.035Z,2.17
2023-04-19T15:09:08.603Z,2.05
2023-04-19T15:11:35.272Z,2.33
2023-04-19T15:14:02.234Z,2.50
2023-04-19T15:16:28.986Z,2.42
2023-04-19T15:18:55.689Z,2.63
2023-04-19T15:21:24.581Z,1.83
2023-04-19T15:23:51.760Z,2.35
2023-04-19T15:26:18.419Z,2.13
2023-04-19T15:28:45.033Z,2.45
2023-04-19T15:31:11.878Z,2.65
2023-04-19T15:33:38.528Z,2.45
2023-04-19T15:36:05.641Z,2.33
2023-04-19T15:38:32.823Z,2.25
2023-04-19T15:41:00.568Z,2.30
2023-04-19T15:43:27.250Z,2.53
2023-04-19T15:45:53.898Z,2.72
2023-04-19T15:48:20.862Z,2.20
2023-04-19T15:50:47.697Z,2.70
2023-04-19T15:53:14.388Z,2.30
2023-04-19T15:55:41.567Z,2.30
2023-04-19T15:58:08.256Z,2.35
2023-04-19T16:00:34.951Z,2.40
2023-04-19T16:03:01.838Z,1.83
2023-04-19T16:05:28.617Z,2.92
2023-04-19T16:08:03.043Z,2.22
2023-04-19T16:10:29.837Z,2.35
2023-04-19T16:12:56.461Z,2.22
2023-04-19T16:15:23.479Z,1.90
2023-04-19T16:17:50.712Z,2.13
2023-04-19T16:20:17.433Z,2.30
2023-04-19T16:22:44.019Z,2.13
2023-04-19T16:25:14.206Z,2.20
2023-04-19T16:27:45.516Z,2.33
2023-04-19T16:30:12.724Z,2.22
2023-04-19T16:32:40.373Z,2.33
2023-04-19T16:35:08.055Z,1.90
2023-04-19T16:37:35.300Z,2.30
2023-04-19T16:40:08.192Z,2.38
2023-04-19T16:42:35.460Z,2.42
2023-04-19T16:45:02.286Z,2.00
2023-04-19T16:47:30.265Z,1.77
2023-04-19T16:49:57.922Z,2.35
2023-04-19T16:52:25.692Z,1.92
2023-04-19T16:54:52.396Z,1.60
2023-04-19T16:57:18.989Z,2.08
2023-04-19T16:59:45.786Z,2.53
2023-04-19T17:02:12.472Z,2.30
2023-04-19T17:04:39.529Z,2.30
2023-04-19T17:07:08.500Z,2.35
2023-04-19T17:09:35.581Z,2.00
2023-04-19T17:12:02.207Z,2.10
2023-04-19T17:14:29.342Z,2.00
2023-04-19T17:16:56.035Z,2.05
2023-04-19T17:19:22.697Z,1.83
2023-04-19T17:21:49.239Z,2.17
2023-04-19T17:24:16.241Z,2.30
2023-04-19T17:26:42.871Z,1.90
2023-04-19T17:29:09.581Z,2.03
2023-04-19T17:31:36.203Z,1.80
2023-04-19T17:34:02.864Z,2.10
2023-04-19T17:36:29.421Z,2.42
2023-04-19T17:38:56.039Z,1.95
2023-04-19T17:41:22.660Z,1.98
2023-04-19T17:43:49.253Z,2.30
2023-04-19T17:46:15.936Z,2.45
2023-04-19T17:48:42.543Z,1.98
2023-04-19T17:51:09.194Z,2.15
2023-04-19T17:53:35.787Z,2.35
2023-04-19T17:56:02.943Z,2.20
2023-04-19T17:58:29.560Z,2.38
2023-04-19T18:00:56.103Z,1.98
2023-04-19T18:03:22.901Z,1.83
2023-04-19T18:05:49.589Z,1.98
2023-04-19T18:08:16.172Z,2.08
2023-04-19T18:10:42.796Z,2.10
2023-04-19T18:13:09.360Z,2.50
2023-04-19T18:15:36.603Z,2.30
2023-04-19T18:18:03.243Z,1.98
2023-04-19T18:20:30.045Z,2.33
2023-04-19T18:22:59.214Z,2.50
2023-04-19T18:25:25.866Z,2.33
2023-04-19T18:27:52.456Z,2.55
2023-04-19T18:30:19.026Z,2.60
2023-04-19T18:32:47.560Z,2.60
2023-04-19T18:35:14.171Z,2.40
2023-04-19T18:37:41.792Z,2.47
2023-04-19T18:40:08.912Z,2.70
2023-04-19T18:42:35.498Z,2.60
2023-04-19T18:45:03.984Z,2.70
2023-04-19T18:47:31.012Z,2.95
2023-04-19T18:50:05.049Z,2.55
2023-04-19T18:52:33.072Z,2.58
2023-04-19T18:54:59.651Z,2.60
2023-04-19T18:57:27.549Z,2.72
2023-04-19T18:59:56.191Z,2.15
2023-04-19T19:02:22.933Z,2.47
2023-04-19T19:04:57.113Z,2.55
2023-04-19T19:07:35.646Z,2.33
2023-04-19T19:10:16.965Z,2.00
2023-04-19T19:12:45.597Z,2.35
2023-04-19T19:15:13.992Z,2.40
2023-04-19T19:17:40.991Z,2.30
2023-04-19T19:20:08.228Z,2.10
2023-04-19T19:22:34.902Z,2.28
2023-04-19T19:25:01.540Z,2.45
2023-04-19T19:27:28.187Z,2.17
2023-04-19T19:29:54.854Z,2.28
2023-04-19T19:32:21.754Z,1.98
2023-04-19T19:37:19.231Z,2.35
2023-04-19T19:39:46.594Z,2.40
2023-04-19T19:42:16.482Z,2.43
2023-04-19T19:44:43.430Z,2.75
2023-04-19T19:47:11.158Z,2.30
2023-04-19T19:52:07.760Z,1.92
2023-04-19T19:54:34.401Z,2.35
2023-04-19T19:59:34.532Z,2.58
2023-04-19T20:02:03.526Z,1.98
2023-04-19T20:07:28.656Z,1.87
2023-04-19T20:09:45.167Z,2.00
2023-04-19T20:12:13.612Z,1.80
2023-04-19T20:17:06.993Z,2.08
2023-04-19T20:19:34.069Z,1.73
2023-04-19T20:22:00.781Z,2.40
2023-04-19T20:24:27.580Z,2.50
2023-04-19T20:26:54.248Z,2.10
2023-04-19T20:29:20.846Z,2.03
2023-04-19T20:31:47.467Z,2.33
2023-04-19T20:34:14.094Z,1.77
2023-04-19T20:36:40.751Z,2.10
2023-04-19T20:39:09.866Z,2.25
2023-04-19T20:41:36.608Z,2.50
2023-04-19T20:44:04.644Z,2.10
2023-04-19T20:46:31.991Z,1.92
2023-04-19T20:48:58.608Z,2.25
2023-04-19T20:51:25.301Z,2.13
2023-04-19T20:53:51.895Z,2.35
2023-04-19T20:56:18.456Z,1.90
2023-04-19T20:58:45.418Z,2.10
2023-04-19T21:01:14.350Z,2.00
2023-04-19T21:03:41.050Z,2.60
2023-04-19T21:06:07.747Z,2.10
2023-04-19T21:08:34.358Z,2.10
2023-04-19T21:11:01.033Z,2.60
2023-04-19T21:13:27.748Z,2.88
2023-04-19T21:15:54.431Z,2.33
2023-04-19T21:18:21.675Z,2.50
2023-04-19T21:20:48.290Z,2.50
2023-04-19T21:23:16.501Z,2.92
2023-04-19T21:25:43.365Z,1.95
2023-04-19T21:28:09.920Z,2.38
2023-04-19T21:30:40.745Z,2.63
2023-04-19T21:33:07.495Z,2.60
2023-04-19T21:35:34.299Z,2.30
2023-04-19T21:38:00.883Z,2.63
2023-04-19T21:40:27.531Z,2.67
2023-04-19T21:42:54.163Z,2.80
2023-04-19T21:45:20.816Z,2.15
2023-04-19T21:47:47.501Z,2.70
2023-04-19T21:50:14.085Z,2.30
2023-04-19T21:52:40.622Z,2.28
2023-04-19T21:55:07.713Z,2.30
2023-04-19T21:57:34.330Z,2.50
2023-04-19T22:00:01.099Z,2.75
2023-04-19T22:02:27.953Z,2.28
2023-04-19T22:04:54.631Z,2.70
2023-04-19T22:07:24.031Z,2.38
2023-04-19T22:09:50.818Z,2.38
2023-04-19T22:12:17.610Z,2.45
2023-04-19T22:14:44.764Z,2.15
2023-04-19T22:17:12.548Z,2.00
2023-04-19T22:19:39.475Z,2.30
2023-04-19T22:22:06.078Z,2.50
2023-04-19T22:24:32.668Z,2.00
2023-04-19T22:26:59.283Z,2.10
2023-04-19T22:29:26.071Z,2.15
2023-04-19T22:31:52.804Z,2.63
2023-04-19T22:34:19.462Z,1.90
2023-04-19T22:36:46.065Z,1.80
2023-04-19T22:39:13.105Z,2.35
2023-04-19T22:41:39.692Z,2.20
2023-04-19T22:44:06.264Z,2.35
2023-04-19T22:46:33.300Z,2.38
2023-04-19T22:48:59.973Z,2.83
2023-04-19T22:51:27.773Z,1.70
2023-04-19T22:53:54.393Z,2.08
2023-04-19T22:56:21.078Z,1.85
2023-04-19T22:58:47.641Z,2.10
2023-04-19T23:01:14.300Z,2.40
2023-04-19T23:03:41.064Z,2.35
2023-04-19T23:06:08.089Z,2.15
2023-04-19T23:08:35.125Z,2.05
2023-04-19T23:11:01.694Z,2.25
2023-04-19T23:13:28.390Z,1.65
2023-04-19T23:15:55.196Z,2.33
2023-04-19T23:18:21.795Z,2.17
2023-04-19T23:20:48.317Z,2.42
2023-04-19T23:23:15.104Z,2.08
2023-04-19T23:25:42.077Z,2.05
2023-04-19T23:28:10.343Z,2.60
2023-04-19T23:30:38.541Z,2.53
2023-04-19T23:33:05.442Z,2.05
2023-04-19T23:35:32.549Z,2.20
2023-04-19T23:37:59.330Z,2.72
2023-04-19T23:40:25.899Z,2.33
2023-04-19T23:42:52.479Z,1.80
2023-04-19T23:45:19.176Z,2.50
2023-04-19T23:47:45.785Z,2.50
2023-04-19T23:50:12.364Z,2.22
2023-04-19T23:52:39.038Z,2.88
2023-04-19T23:55:06.855Z,2.95
2023-04-19T23:57:36.450Z,3.05
